sensor_id;sensor_type;location;lat;lon;timestamp;P1;durP1;ratioP1;P2;durP2;ratioP2
64225;SDS011;50545;56.064;26.178;2023-09-18T00:01:26;5.28;;;3.22;;
64225;SDS011;50545;56.064;26.178;2023-09-18T00:03:55;4.30;;;2.75;;
64225;SDS011;50545;56.064;26.178;2023-09-18T00:06:22;4.07;;;2.78;;
64225;SDS011;50545;56.064;26.178;2023-09-18T00:08:51;3.95;;;2.60;;
64225;SDS011;50545;56.064;26.178;2023-09-18T00:11:20;6.57;;;2.67;;
64225;SDS011;50545;56.064;26.178;2023-09-18T00:13:48;3.15;;;2.25;;
64225;SDS011;50545;56.064;26.178;2023-09-18T00:16:15;3.50;;;2.35;;
64225;SDS011;50545;56.064;26.178;2023-09-18T00:18:43;3.13;;;2.20;;
64225;SDS011;50545;56.064;26.178;2023-09-18T00:21:11;3.88;;;2.42;;
64225;SDS011;50545;56.064;26.178;2023-09-18T00:23:39;4.72;;;2.53;;
64225;SDS011;50545;56.064;26.178;2023-09-18T00:26:06;4.22;;;2.60;;
64225;SDS011;50545;56.064;26.178;2023-09-18T00:28:34;4.07;;;2.60;;
64225;SDS011;50545;56.064;26.178;2023-09-18T00:31:02;3.75;;;2.50;;
64225;SDS011;50545;56.064;26.178;2023-09-18T00:33:29;5.10;;;2.72;;
64225;SDS011;50545;56.064;26.178;2023-09-18T00:35:57;4.70;;;2.78;;
64225;SDS011;50545;56.064;26.178;2023-09-18T00:38:24;3.83;;;2.40;;
64225;SDS011;50545;56.064;26.178;2023-09-18T00:40:52;4.05;;;2.53;;
64225;SDS011;50545;56.064;26.178;2023-09-18T00:43:19;4.28;;;2.47;;
64225;SDS011;50545;56.064;26.178;2023-09-18T00:45:48;3.55;;;2.40;;
64225;SDS011;50545;56.064;26.178;2023-09-18T00:48:16;3.67;;;2.40;;
64225;SDS011;50545;56.064;26.178;2023-09-18T00:50:44;4.28;;;2.63;;
64225;SDS011;50545;56.064;26.178;2023-09-18T00:53:14;6.03;;;2.70;;
64225;SDS011;50545;56.064;26.178;2023-09-18T00:55:46;4.22;;;2.63;;
64225;SDS011;50545;56.064;26.178;2023-09-18T00:58:14;4.60;;;2.60;;
64225;SDS011;50545;56.064;26.178;2023-09-18T01:00:44;3.70;;;2.50;;
64225;SDS011;50545;56.064;26.178;2023-09-18T01:03:11;4.50;;;2.97;;
64225;SDS011;50545;56.064;26.178;2023-09-18T01:05:39;3.95;;;2.72;;
64225;SDS011;50545;56.064;26.178;2023-09-18T01:08:06;2.85;;;2.05;;
64225;SDS011;50545;56.064;26.178;2023-09-18T01:10:36;2.88;;;2.28;;
64225;SDS011;50545;56.064;26.178;2023-09-18T01:13:17;2.95;;;2.08;;
64225;SDS011;50545;56.064;26.178;2023-09-18T01:15:57;2.63;;;1.95;;
64225;SDS011;50545;56.064;26.178;2023-09-18T01:18:34;4.35;;;2.58;;
64225;SDS011;50545;56.064;26.178;2023-09-18T01:21:02;2.60;;;1.88;;
64225;SDS011;50545;56.064;26.178;2023-09-18T01:23:29;2.58;;;1.92;;
64225;SDS011;50545;56.064;26.178;2023-09-18T01:25:57;2.67;;;1.70;;
64225;SDS011;50545;56.064;26.178;2023-09-18T01:28:25;2.25;;;1.73;;
64225;SDS011;50545;56.064;26.178;2023-09-18T01:30:52;1.75;;;1.52;;
64225;SDS011;50545;56.064;26.178;2023-09-18T01:33:20;4.25;;;2.00;;
64225;SDS011;50545;56.064;26.178;2023-09-18T01:35:49;3.25;;;2.10;;
64225;SDS011;50545;56.064;26.178;2023-09-18T01:38:18;3.53;;;2.30;;
64225;SDS011;50545;56.064;26.178;2023-09-18T01:40:46;3.13;;;2.20;;
64225;SDS011;50545;56.064;26.178;2023-09-18T01:43:14;2.90;;;2.15;;
64225;SDS011;50545;56.064;26.178;2023-09-18T01:45:42;3.60;;;2.22;;
64225;SDS011;50545;56.064;26.178;2023-09-18T01:48:10;4.07;;;2.50;;
64225;SDS011;50545;56.064;26.178;2023-09-18T01:50:38;3.28;;;2.20;;
64225;SDS011;50545;56.064;26.178;2023-09-18T01:53:07;2.70;;;2.10;;
64225;SDS011;50545;56.064;26.178;2023-09-18T01:55:34;3.33;;;2.25;;
64225;SDS011;50545;56.064;26.178;2023-09-18T01:58:02;3.35;;;2.22;;
64225;SDS011;50545;56.064;26.178;2023-09-18T02:00:30;2.60;;;1.85;;
64225;SDS011;50545;56.064;26.178;2023-09-18T02:02:58;2.47;;;2.05;;
64225;SDS011;50545;56.064;26.178;2023-09-18T02:05:45;2.95;;;2.10;;
64225;SDS011;50545;56.064;26.178;2023-09-18T02:08:13;2.80;;;2.10;;
64225;SDS011;50545;56.064;26.178;2023-09-18T02:10:40;2.88;;;2.20;;
64225;SDS011;50545;56.064;26.178;2023-09-18T02:13:08;3.40;;;2.22;;
64225;SDS011;50545;56.064;26.178;2023-09-18T02:15:37;4.35;;;2.40;;
64225;SDS011;50545;56.064;26.178;2023-09-18T02:18:05;3.80;;;2.33;;
64225;SDS011;50545;56.064;26.178;2023-09-18T02:20:39;4.70;;;2.55;;
64225;SDS011;50545;56.064;26.178;2023-09-18T02:23:08;4.05;;;2.63;;
64225;SDS011;50545;56.064;26.178;2023-09-18T02:25:35;4.10;;;2.65;;
64225;SDS011;50545;56.064;26.178;2023-09-18T02:28:03;3.22;;;2.38;;
64225;SDS011;50545;56.064;26.178;2023-09-18T02:30:31;3.33;;;2.58;;
64225;SDS011;50545;56.064;26.178;2023-09-18T02:32:58;3.67;;;2.15;;
64225;SDS011;50545;56.064;26.178;2023-09-18T02:35:26;4.25;;;2.70;;
64225;SDS011;50545;56.064;26.178;2023-09-18T02:37:54;4.90;;;2.88;;
64225;SDS011;50545;56.064;26.178;2023-09-18T02:40:21;4.35;;;2.70;;
64225;SDS011;50545;56.064;26.178;2023-09-18T02:42:48;4.25;;;2.65;;
64225;SDS011;50545;56.064;26.178;2023-09-18T02:45:16;4.35;;;2.60;;
64225;SDS011;50545;56.064;26.178;2023-09-18T02:47:43;4.65;;;2.92;;
64225;SDS011;50545;56.064;26.178;2023-09-18T02:50:11;4.40;;;2.88;;
64225;SDS011;50545;56.064;26.178;2023-09-18T02:52:39;4.15;;;2.70;;
64225;SDS011;50545;56.064;26.178;2023-09-18T02:55:06;4.60;;;2.70;;
64225;SDS011;50545;56.064;26.178;2023-09-18T02:57:36;3.97;;;2.45;;
64225;SDS011;50545;56.064;26.178;2023-09-18T03:00:04;6.55;;;3.00;;
64225;SDS011;50545;56.064;26.178;2023-09-18T03:02:32;4.50;;;2.75;;
64225;SDS011;50545;56.064;26.178;2023-09-18T03:05:00;5.95;;;2.58;;
64225;SDS011;50545;56.064;26.178;2023-09-18T03:07:28;4.15;;;2.72;;
64225;SDS011;50545;56.064;26.178;2023-09-18T03:09:56;4.38;;;2.70;;
64225;SDS011;50545;56.064;26.178;2023-09-18T03:12:23;3.60;;;2.55;;
64225;SDS011;50545;56.064;26.178;2023-09-18T03:14:50;3.72;;;2.58;;
64225;SDS011;50545;56.064;26.178;2023-09-18T03:17:18;3.97;;;2.53;;
64225;SDS011;50545;56.064;26.178;2023-09-18T03:19:50;4.10;;;2.67;;
64225;SDS011;50545;56.064;26.178;2023-09-18T03:22:17;3.95;;;2.53;;
64225;SDS011;50545;56.064;26.178;2023-09-18T03:24:45;3.88;;;2.60;;
64225;SDS011;50545;56.064;26.178;2023-09-18T03:27:12;4.35;;;2.75;;
64225;SDS011;50545;56.064;26.178;2023-09-18T03:29:40;4.85;;;2.78;;
64225;SDS011;50545;56.064;26.178;2023-09-18T03:32:07;4.95;;;3.03;;
64225;SDS011;50545;56.064;26.178;2023-09-18T03:34:39;4.53;;;2.88;;
64225;SDS011;50545;56.064;26.178;2023-09-18T03:37:08;4.40;;;3.00;;
64225;SDS011;50545;56.064;26.178;2023-09-18T03:39:36;5.68;;;2.85;;
64225;SDS011;50545;56.064;26.178;2023-09-18T03:42:04;6.68;;;3.10;;
64225;SDS011;50545;56.064;26.178;2023-09-18T03:44:31;5.75;;;2.90;;
64225;SDS011;50545;56.064;26.178;2023-09-18T03:46:59;5.32;;;3.03;;
64225;SDS011;50545;56.064;26.178;2023-09-18T03:49:27;4.75;;;2.75;;
64225;SDS011;50545;56.064;26.178;2023-09-18T03:51:55;4.65;;;3.08;;
64225;SDS011;50545;56.064;26.178;2023-09-18T03:54:22;4.28;;;2.85;;
64225;SDS011;50545;56.064;26.178;2023-09-18T03:56:50;3.83;;;2.67;;
64225;SDS011;50545;56.064;26.178;2023-09-18T03:59:17;3.65;;;2.67;;
64225;SDS011;50545;56.064;26.178;2023-09-18T04:01:45;3.83;;;2.50;;
64225;SDS011;50545;56.064;26.178;2023-09-18T04:04:12;4.28;;;2.78;;
64225;SDS011;50545;56.064;26.178;2023-09-18T04:06:43;4.15;;;2.58;;
64225;SDS011;50545;56.064;26.178;2023-09-18T04:09:12;4.32;;;2.45;;
64225;SDS011;50545;56.064;26.178;2023-09-18T04:11:41;3.92;;;2.40;;
64225;SDS011;50545;56.064;26.178;2023-09-18T04:14:09;5.45;;;2.40;;
64225;SDS011;50545;56.064;26.178;2023-09-18T04:16:36;6.13;;;2.60;;
64225;SDS011;50545;56.064;26.178;2023-09-18T04:19:06;4.50;;;2.78;;
64225;SDS011;50545;56.064;26.178;2023-09-18T04:21:35;5.18;;;2.75;;
64225;SDS011;50545;56.064;26.178;2023-09-18T04:24:02;4.57;;;2.60;;
64225;SDS011;50545;56.064;26.178;2023-09-18T04:26:30;4.20;;;2.30;;
64225;SDS011;50545;56.064;26.178;2023-09-18T04:28:57;2.88;;;2.20;;
64225;SDS011;50545;56.064;26.178;2023-09-18T04:31:26;3.58;;;2.40;;
64225;SDS011;50545;56.064;26.178;2023-09-18T04:33:55;6.15;;;2.40;;
64225;SDS011;50545;56.064;26.178;2023-09-18T04:36:23;4.90;;;2.13;;
64225;SDS011;50545;56.064;26.178;2023-09-18T04:38:51;3.85;;;2.35;;
64225;SDS011;50545;56.064;26.178;2023-09-18T04:41:19;5.68;;;2.38;;
64225;SDS011;50545;56.064;26.178;2023-09-18T04:43:46;4.00;;;2.50;;
64225;SDS011;50545;56.064;26.178;2023-09-18T04:46:14;3.85;;;2.40;;
64225;SDS011;50545;56.064;26.178;2023-09-18T04:48:42;2.78;;;1.73;;
64225;SDS011;50545;56.064;26.178;2023-09-18T04:51:09;2.92;;;2.03;;
64225;SDS011;50545;56.064;26.178;2023-09-18T04:53:38;2.13;;;1.60;;
64225;SDS011;50545;56.064;26.178;2023-09-18T04:56:06;2.97;;;2.03;;
64225;SDS011;50545;56.064;26.178;2023-09-18T04:58:33;3.08;;;2.08;;
64225;SDS011;50545;56.064;26.178;2023-09-18T05:01:04;3.38;;;1.83;;
64225;SDS011;50545;56.064;26.178;2023-09-18T05:03:34;3.47;;;2.08;;
64225;SDS011;50545;56.064;26.178;2023-09-18T05:06:04;3.43;;;2.20;;
64225;SDS011;50545;56.064;26.178;2023-09-18T05:08:32;4.00;;;2.17;;
64225;SDS011;50545;56.064;26.178;2023-09-18T05:10:59;4.45;;;2.70;;
64225;SDS011;50545;56.064;26.178;2023-09-18T05:13:27;4.63;;;2.30;;
64225;SDS011;50545;56.064;26.178;2023-09-18T05:15:55;3.53;;;2.28;;
64225;SDS011;50545;56.064;26.178;2023-09-18T05:18:22;5.45;;;2.38;;
64225;SDS011;50545;56.064;26.178;2023-09-18T05:20:50;4.47;;;2.42;;
64225;SDS011;50545;56.064;26.178;2023-09-18T05:23:17;4.05;;;2.55;;
64225;SDS011;50545;56.064;26.178;2023-09-18T05:25:45;3.83;;;2.10;;
64225;SDS011;50545;56.064;26.178;2023-09-18T05:28:13;3.80;;;2.42;;
64225;SDS011;50545;56.064;26.178;2023-09-18T05:30:40;4.40;;;2.42;;
64225;SDS011;50545;56.064;26.178;2023-09-18T05:33:08;4.82;;;2.25;;
64225;SDS011;50545;56.064;26.178;2023-09-18T05:38:06;2.63;;;1.80;;
64225;SDS011;50545;56.064;26.178;2023-09-18T05:40:35;3.67;;;2.35;;
64225;SDS011;50545;56.064;26.178;2023-09-18T05:43:03;3.20;;;1.98;;
64225;SDS011;50545;56.064;26.178;2023-09-18T05:45:31;3.17;;;1.90;;
64225;SDS011;50545;56.064;26.178;2023-09-18T05:47:59;3.63;;;2.22;;
64225;SDS011;50545;56.064;26.178;2023-09-18T05:50:34;5.00;;;2.20;;
64225;SDS011;50545;56.064;26.178;2023-09-18T05:53:02;5.97;;;2.38;;
64225;SDS011;50545;56.064;26.178;2023-09-18T05:55:31;3.92;;;2.20;;
64225;SDS011;50545;56.064;26.178;2023-09-18T05:57:59;4.22;;;2.20;;
64225;SDS011;50545;56.064;26.178;2023-09-18T06:00:29;5.80;;;1.92;;
64225;SDS011;50545;56.064;26.178;2023-09-18T06:02:58;3.72;;;2.10;;
64225;SDS011;50545;56.064;26.178;2023-09-18T06:05:26;5.10;;;2.38;;
64225;SDS011;50545;56.064;26.178;2023-09-18T06:07:53;4.63;;;2.17;;
64225;SDS011;50545;56.064;26.178;2023-09-18T06:10:21;3.47;;;2.13;;
64225;SDS011;50545;56.064;26.178;2023-09-18T06:12:48;3.13;;;1.98;;
64225;SDS011;50545;56.064;26.178;2023-09-18T06:15:16;3.30;;;2.00;;
64225;SDS011;50545;56.064;26.178;2023-09-18T06:17:45;5.80;;;2.45;;
64225;SDS011;50545;56.064;26.178;2023-09-18T06:20:13;3.63;;;2.40;;
64225;SDS011;50545;56.064;26.178;2023-09-18T06:22:42;3.40;;;2.13;;
64225;SDS011;50545;56.064;26.178;2023-09-18T06:25:10;5.40;;;2.40;;
64225;SDS011;50545;56.064;26.178;2023-09-18T06:27:38;4.45;;;2.35;;
64225;SDS011;50545;56.064;26.178;2023-09-18T06:30:06;3.72;;;1.92;;
64225;SDS011;50545;56.064;26.178;2023-09-18T06:32:34;3.63;;;2.20;;
64225;SDS011;50545;56.064;26.178;2023-09-18T06:35:04;3.90;;;2.42;;
64225;SDS011;50545;56.064;26.178;2023-09-18T06:37:32;4.25;;;2.63;;
64225;SDS011;50545;56.064;26.178;2023-09-18T06:39:59;3.50;;;2.30;;
64225;SDS011;50545;56.064;26.178;2023-09-18T06:42:31;4.07;;;2.33;;
64225;SDS011;50545;56.064;26.178;2023-09-18T06:44:58;3.22;;;2.20;;
64225;SDS011;50545;56.064;26.178;2023-09-18T06:47:28;4.15;;;2.47;;
64225;SDS011;50545;56.064;26.178;2023-09-18T06:49:56;4.38;;;2.42;;
64225;SDS011;50545;56.064;26.178;2023-09-18T06:52:23;3.80;;;2.38;;
64225;SDS011;50545;56.064;26.178;2023-09-18T06:54:52;4.43;;;2.45;;
64225;SDS011;50545;56.064;26.178;2023-09-18T06:57:19;3.90;;;2.42;;
64225;SDS011;50545;56.064;26.178;2023-09-18T06:59:49;5.10;;;2.65;;
64225;SDS011;50545;56.064;26.178;2023-09-18T07:02:17;3.47;;;2.30;;
64225;SDS011;50545;56.064;26.178;2023-09-18T07:04:45;4.28;;;2.53;;
64225;SDS011;50545;56.064;26.178;2023-09-18T07:07:13;4.55;;;2.75;;
64225;SDS011;50545;56.064;26.178;2023-09-18T07:09:41;3.92;;;2.35;;
64225;SDS011;50545;56.064;26.178;2023-09-18T07:12:29;4.07;;;2.40;;
64225;SDS011;50545;56.064;26.178;2023-09-18T07:15:02;5.80;;;2.92;;
64225;SDS011;50545;56.064;26.178;2023-09-18T07:17:33;4.15;;;2.75;;
64225;SDS011;50545;56.064;26.178;2023-09-18T07:20:02;4.38;;;2.58;;
64225;SDS011;50545;56.064;26.178;2023-09-18T07:22:44;3.50;;;2.33;;
64225;SDS011;50545;56.064;26.178;2023-09-18T07:25:14;6.00;;;2.75;;
64225;SDS011;50545;56.064;26.178;2023-09-18T07:27:42;6.55;;;3.13;;
64225;SDS011;50545;56.064;26.178;2023-09-18T07:32:43;3.75;;;2.60;;
64225;SDS011;50545;56.064;26.178;2023-09-18T07:35:11;5.28;;;2.88;;
64225;SDS011;50545;56.064;26.178;2023-09-18T07:37:40;5.47;;;3.03;;
64225;SDS011;50545;56.064;26.178;2023-09-18T07:40:07;4.30;;;2.50;;
64225;SDS011;50545;56.064;26.178;2023-09-18T07:42:35;5.90;;;2.95;;
64225;SDS011;50545;56.064;26.178;2023-09-18T07:45:02;4.68;;;2.35;;
64225;SDS011;50545;56.064;26.178;2023-09-18T07:47:30;6.47;;;3.17;;
64225;SDS011;50545;56.064;26.178;2023-09-18T07:49:59;4.70;;;2.60;;
64225;SDS011;50545;56.064;26.178;2023-09-18T07:52:27;6.00;;;3.25;;
64225;SDS011;50545;56.064;26.178;2023-09-18T07:54:55;5.85;;;2.88;;
64225;SDS011;50545;56.064;26.178;2023-09-18T07:57:22;5.55;;;3.00;;
64225;SDS011;50545;56.064;26.178;2023-09-18T07:59:50;6.45;;;3.15;;
64225;SDS011;50545;56.064;26.178;2023-09-18T08:02:18;5.40;;;3.28;;
64225;SDS011;50545;56.064;26.178;2023-09-18T08:04:46;4.60;;;2.88;;
64225;SDS011;50545;56.064;26.178;2023-09-18T08:07:13;5.95;;;3.10;;
64225;SDS011;50545;56.064;26.178;2023-09-18T08:09:41;4.38;;;2.72;;
64225;SDS011;50545;56.064;26.178;2023-09-18T08:12:09;4.75;;;2.92;;
64225;SDS011;50545;56.064;26.178;2023-09-18T08:14:36;4.82;;;2.80;;
64225;SDS011;50545;56.064;26.178;2023-09-18T08:17:04;4.18;;;2.75;;
64225;SDS011;50545;56.064;26.178;2023-09-18T08:19:36;5.60;;;2.97;;
64225;SDS011;50545;56.064;26.178;2023-09-18T08:22:04;5.38;;;2.97;;
64225;SDS011;50545;56.064;26.178;2023-09-18T08:24:31;6.55;;;3.40;;
64225;SDS011;50545;56.064;26.178;2023-09-18T08:26:58;5.35;;;2.90;;
64225;SDS011;50545;56.064;26.178;2023-09-18T08:29:26;6.20;;;3.28;;
64225;SDS011;50545;56.064;26.178;2023-09-18T08:31:53;5.68;;;3.33;;
64225;SDS011;50545;56.064;26.178;2023-09-18T08:34:21;4.82;;;2.97;;
64225;SDS011;50545;56.064;26.178;2023-09-18T08:36:50;3.92;;;2.17;;
64225;SDS011;50545;56.064;26.178;2023-09-18T08:39:18;5.07;;;3.03;;
64225;SDS011;50545;56.064;26.178;2023-09-18T08:41:47;5.22;;;3.08;;
64225;SDS011;50545;56.064;26.178;2023-09-18T08:44:18;5.72;;;3.33;;
64225;SDS011;50545;56.064;26.178;2023-09-18T08:46:46;5.00;;;3.17;;
64225;SDS011;50545;56.064;26.178;2023-09-18T08:49:14;7.13;;;3.78;;
64225;SDS011;50545;56.064;26.178;2023-09-18T08:51:42;4.78;;;2.97;;
64225;SDS011;50545;56.064;26.178;2023-09-18T08:54:10;4.90;;;3.05;;
64225;SDS011;50545;56.064;26.178;2023-09-18T08:56:38;5.32;;;3.10;;
64225;SDS011;50545;56.064;26.178;2023-09-18T08:59:06;6.93;;;3.33;;
64225;SDS011;50545;56.064;26.178;2023-09-18T09:01:33;5.65;;;3.03;;
64225;SDS011;50545;56.064;26.178;2023-09-18T09:04:01;6.25;;;3.35;;
64225;SDS011;50545;56.064;26.178;2023-09-18T09:06:28;6.28;;;3.45;;
64225;SDS011;50545;56.064;26.178;2023-09-18T09:08:56;6.40;;;3.28;;
64225;SDS011;50545;56.064;26.178;2023-09-18T09:11:24;6.13;;;3.90;;
64225;SDS011;50545;56.064;26.178;2023-09-18T09:14:08;4.82;;;3.03;;
64225;SDS011;50545;56.064;26.178;2023-09-18T09:16:48;5.90;;;3.50;;
64225;SDS011;50545;56.064;26.178;2023-09-18T09:19:16;5.15;;;3.08;;
64225;SDS011;50545;56.064;26.178;2023-09-18T09:21:45;4.53;;;2.97;;
64225;SDS011;50545;56.064;26.178;2023-09-18T09:24:13;7.80;;;3.47;;
64225;SDS011;50545;56.064;26.178;2023-09-18T09:26:40;5.75;;;3.78;;
64225;SDS011;50545;56.064;26.178;2023-09-18T09:29:20;5.93;;;3.88;;
64225;SDS011;50545;56.064;26.178;2023-09-18T09:31:48;5.28;;;3.33;;
64225;SDS011;50545;56.064;26.178;2023-09-18T09:34:24;6.07;;;3.53;;
64225;SDS011;50545;56.064;26.178;2023-09-18T09:36:54;6.13;;;3.70;;
64225;SDS011;50545;56.064;26.178;2023-09-18T09:39:22;4.63;;;3.20;;
64225;SDS011;50545;56.064;26.178;2023-09-18T09:41:52;5.28;;;3.30;;
64225;SDS011;50545;56.064;26.178;2023-09-18T09:44:20;5.55;;;3.38;;
64225;SDS011;50545;56.064;26.178;2023-09-18T09:46:48;9.40;;;3.97;;
64225;SDS011;50545;56.064;26.178;2023-09-18T09:49:16;6.05;;;3.28;;
64225;SDS011;50545;56.064;26.178;2023-09-18T09:51:46;5.10;;;3.30;;
64225;SDS011;50545;56.064;26.178;2023-09-18T09:54:13;5.90;;;3.25;;
64225;SDS011;50545;56.064;26.178;2023-09-18T09:57:03;5.88;;;3.78;;
64225;SDS011;50545;56.064;26.178;2023-09-18T09:59:32;5.47;;;3.05;;
64225;SDS011;50545;56.064;26.178;2023-09-18T10:02:02;4.93;;;3.08;;
64225;SDS011;50545;56.064;26.178;2023-09-18T10:04:31;5.40;;;3.25;;
64225;SDS011;50545;56.064;26.178;2023-09-18T10:07:10;5.72;;;3.25;;
64225;SDS011;50545;56.064;26.178;2023-09-18T10:09:39;6.88;;;3.45;;
64225;SDS011;50545;56.064;26.178;2023-09-18T10:12:10;5.30;;;3.00;;
64225;SDS011;50545;56.064;26.178;2023-09-18T10:14:39;5.63;;;3.47;;
64225;SDS011;50545;56.064;26.178;2023-09-18T10:17:26;4.88;;;3.03;;
64225;SDS011;50545;56.064;26.178;2023-09-18T10:22:48;4.25;;;2.72;;
64225;SDS011;50545;56.064;26.178;2023-09-18T10:25:26;4.88;;;2.95;;
64225;SDS011;50545;56.064;26.178;2023-09-18T10:27:58;5.65;;;3.42;;
64225;SDS011;50545;56.064;26.178;2023-09-18T10:30:29;5.95;;;3.22;;
64225;SDS011;50545;56.064;26.178;2023-09-18T10:35:28;4.03;;;2.58;;
64225;SDS011;50545;56.064;26.178;2023-09-18T10:37:56;6.57;;;3.97;;
64225;SDS011;50545;56.064;26.178;2023-09-18T10:40:25;6.93;;;4.03;;
64225;SDS011;50545;56.064;26.178;2023-09-18T10:42:54;5.43;;;3.42;;
64225;SDS011;50545;56.064;26.178;2023-09-18T10:45:24;5.22;;;3.05;;
64225;SDS011;50545;56.064;26.178;2023-09-18T10:47:53;5.72;;;3.25;;
64225;SDS011;50545;56.064;26.178;2023-09-18T10:50:24;5.43;;;3.55;;
64225;SDS011;50545;56.064;26.178;2023-09-18T10:52:53;6.72;;;3.80;;
64225;SDS011;50545;56.064;26.178;2023-09-18T10:55:23;6.50;;;3.72;;
64225;SDS011;50545;56.064;26.178;2023-09-18T10:57:53;6.37;;;3.63;;
64225;SDS011;50545;56.064;26.178;2023-09-18T11:00:26;7.88;;;3.80;;
64225;SDS011;50545;56.064;26.178;2023-09-18T11:03:13;6.97;;;3.78;;
64225;SDS011;50545;56.064;26.178;2023-09-18T11:05:46;5.55;;;3.03;;
64225;SDS011;50545;56.064;26.178;2023-09-18T11:08:27;6.30;;;3.58;;
64225;SDS011;50545;56.064;26.178;2023-09-18T11:11:02;6.32;;;3.60;;
64225;SDS011;50545;56.064;26.178;2023-09-18T11:13:42;5.93;;;3.35;;
64225;SDS011;50545;56.064;26.178;2023-09-18T11:19:05;5.65;;;3.35;;
64225;SDS011;50545;56.064;26.178;2023-09-18T11:21:40;5.07;;;3.38;;
64225;SDS011;50545;56.064;26.178;2023-09-18T11:24:29;5.30;;;3.28;;
64225;SDS011;50545;56.064;26.178;2023-09-18T11:26:55;7.70;;;4.10;;
64225;SDS011;50545;56.064;26.178;2023-09-18T11:29:23;6.32;;;4.07;;
64225;SDS011;50545;56.064;26.178;2023-09-18T11:31:56;7.70;;;4.25;;
64225;SDS011;50545;56.064;26.178;2023-09-18T11:34:31;6.38;;;3.42;;
64225;SDS011;50545;56.064;26.178;2023-09-18T11:36:59;5.35;;;3.40;;
64225;SDS011;50545;56.064;26.178;2023-09-18T11:39:42;7.70;;;3.72;;
64225;SDS011;50545;56.064;26.178;2023-09-18T11:42:12;6.72;;;3.53;;
64225;SDS011;50545;56.064;26.178;2023-09-18T11:44:43;5.75;;;3.58;;
64225;SDS011;50545;56.064;26.178;2023-09-18T11:47:17;6.88;;;4.10;;
64225;SDS011;50545;56.064;26.178;2023-09-18T11:49:58;5.55;;;3.30;;
64225;SDS011;50545;56.064;26.178;2023-09-18T11:52:28;6.90;;;3.33;;
64225;SDS011;50545;56.064;26.178;2023-09-18T11:54:57;5.80;;;3.50;;
64225;SDS011;50545;56.064;26.178;2023-09-18T11:57:26;6.43;;;4.07;;
64225;SDS011;50545;56.064;26.178;2023-09-18T11:59:56;5.68;;;3.55;;
64225;SDS011;50545;56.064;26.178;2023-09-18T12:02:27;5.93;;;3.83;;
64225;SDS011;50545;56.064;26.178;2023-09-18T12:05:15;8.05;;;3.92;;
64225;SDS011;50545;56.064;26.178;2023-09-18T12:07:46;5.82;;;3.70;;
64225;SDS011;50545;56.064;26.178;2023-09-18T12:10:17;7.78;;;4.30;;
64225;SDS011;50545;56.064;26.178;2023-09-18T12:12:50;7.30;;;3.75;;
64225;SDS011;50545;56.064;26.178;2023-09-18T12:15:18;5.25;;;3.47;;
64225;SDS011;50545;56.064;26.178;2023-09-18T12:17:54;5.88;;;3.45;;
64225;SDS011;50545;56.064;26.178;2023-09-18T12:20:22;5.47;;;3.60;;
64225;SDS011;50545;56.064;26.178;2023-09-18T12:22:50;7.70;;;4.25;;
64225;SDS011;50545;56.064;26.178;2023-09-18T12:25:18;7.43;;;3.90;;
64225;SDS011;50545;56.064;26.178;2023-09-18T12:27:46;6.93;;;4.22;;
64225;SDS011;50545;56.064;26.178;2023-09-18T12:30:19;7.00;;;4.50;;
64225;SDS011;50545;56.064;26.178;2023-09-18T12:32:50;7.80;;;4.40;;
64225;SDS011;50545;56.064;26.178;2023-09-18T12:35:18;6.90;;;3.75;;
64225;SDS011;50545;56.064;26.178;2023-09-18T12:37:46;7.10;;;4.43;;
64225;SDS011;50545;56.064;26.178;2023-09-18T12:42:55;7.65;;;4.07;;
64225;SDS011;50545;56.064;26.178;2023-09-18T12:45:23;6.78;;;4.15;;
64225;SDS011;50545;56.064;26.178;2023-09-18T12:47:53;7.00;;;4.13;;
64225;SDS011;50545;56.064;26.178;2023-09-18T12:50:22;8.88;;;4.55;;
64225;SDS011;50545;56.064;26.178;2023-09-18T12:52:51;7.18;;;3.85;;
64225;SDS011;50545;56.064;26.178;2023-09-18T12:55:25;7.55;;;4.47;;
64225;SDS011;50545;56.064;26.178;2023-09-18T12:57:54;6.30;;;3.92;;
64225;SDS011;50545;56.064;26.178;2023-09-18T13:00:22;6.85;;;4.03;;
64225;SDS011;50545;56.064;26.178;2023-09-18T13:02:53;7.65;;;4.53;;
64225;SDS011;50545;56.064;26.178;2023-09-18T13:05:24;8.23;;;4.40;;
64225;SDS011;50545;56.064;26.178;2023-09-18T13:08:03;6.95;;;4.03;;
64225;SDS011;50545;56.064;26.178;2023-09-18T13:10:43;6.88;;;3.83;;
64225;SDS011;50545;56.064;26.178;2023-09-18T13:13:17;6.55;;;4.20;;
64225;SDS011;50545;56.064;26.178;2023-09-18T13:15:45;7.35;;;4.35;;
64225;SDS011;50545;56.064;26.178;2023-09-18T13:18:15;7.97;;;4.75;;
64225;SDS011;50545;56.064;26.178;2023-09-18T13:20:43;6.63;;;3.63;;
64225;SDS011;50545;56.064;26.178;2023-09-18T13:23:11;5.13;;;3.20;;
64225;SDS011;50545;56.064;26.178;2023-09-18T13:25:39;7.65;;;4.45;;
64225;SDS011;50545;56.064;26.178;2023-09-18T13:28:11;8.20;;;4.97;;
64225;SDS011;50545;56.064;26.178;2023-09-18T13:30:40;8.52;;;5.07;;
64225;SDS011;50545;56.064;26.178;2023-09-18T13:33:09;7.60;;;4.40;;
64225;SDS011;50545;56.064;26.178;2023-09-18T13:35:40;6.68;;;4.38;;
64225;SDS011;50545;56.064;26.178;2023-09-18T13:38:09;9.40;;;4.32;;
64225;SDS011;50545;56.064;26.178;2023-09-18T13:40:43;7.07;;;4.25;;
64225;SDS011;50545;56.064;26.178;2023-09-18T13:43:13;8.40;;;4.72;;
64225;SDS011;50545;56.064;26.178;2023-09-18T13:45:41;6.57;;;4.20;;
64225;SDS011;50545;56.064;26.178;2023-09-18T13:48:09;7.18;;;3.95;;
64225;SDS011;50545;56.064;26.178;2023-09-18T13:50:37;6.13;;;3.95;;
64225;SDS011;50545;56.064;26.178;2023-09-18T13:53:05;6.40;;;4.10;;
64225;SDS011;50545;56.064;26.178;2023-09-18T13:55:33;5.95;;;3.78;;
64225;SDS011;50545;56.064;26.178;2023-09-18T13:58:01;7.00;;;4.10;;
64225;SDS011;50545;56.064;26.178;2023-09-18T14:00:32;8.82;;;4.28;;
64225;SDS011;50545;56.064;26.178;2023-09-18T14:03:00;7.18;;;4.20;;
64225;SDS011;50545;56.064;26.178;2023-09-18T14:05:29;6.38;;;4.13;;
64225;SDS011;50545;56.064;26.178;2023-09-18T14:07:58;6.95;;;4.18;;
64225;SDS011;50545;56.064;26.178;2023-09-18T14:10:27;8.13;;;4.35;;
64225;SDS011;50545;56.064;26.178;2023-09-18T14:12:55;7.72;;;4.00;;
64225;SDS011;50545;56.064;26.178;2023-09-18T14:15:24;6.68;;;3.97;;
64225;SDS011;50545;56.064;26.178;2023-09-18T14:17:51;6.43;;;3.80;;
64225;SDS011;50545;56.064;26.178;2023-09-18T14:20:19;6.38;;;3.90;;
64225;SDS011;50545;56.064;26.178;2023-09-18T14:22:47;6.55;;;3.75;;
64225;SDS011;50545;56.064;26.178;2023-09-18T14:25:17;10.15;;;4.25;;
64225;SDS011;50545;56.064;26.178;2023-09-18T14:27:47;7.22;;;4.13;;
64225;SDS011;50545;56.064;26.178;2023-09-18T14:30:15;7.72;;;4.18;;
64225;SDS011;50545;56.064;26.178;2023-09-18T14:32:43;7.68;;;3.95;;
64225;SDS011;50545;56.064;26.178;2023-09-18T14:35:11;6.50;;;3.95;;
64225;SDS011;50545;56.064;26.178;2023-09-18T14:37:40;6.80;;;4.32;;
64225;SDS011;50545;56.064;26.178;2023-09-18T14:40:08;7.72;;;4.22;;
64225;SDS011;50545;56.064;26.178;2023-09-18T14:42:39;7.15;;;4.35;;
64225;SDS011;50545;56.064;26.178;2023-09-18T14:45:07;6.82;;;4.15;;
64225;SDS011;50545;56.064;26.178;2023-09-18T14:47:35;6.65;;;4.22;;
64225;SDS011;50545;56.064;26.178;2023-09-18T14:50:03;6.53;;;4.22;;
64225;SDS011;50545;56.064;26.178;2023-09-18T14:52:31;6.50;;;4.10;;
64225;SDS011;50545;56.064;26.178;2023-09-18T14:54:59;6.53;;;4.18;;
64225;SDS011;50545;56.064;26.178;2023-09-18T14:57:27;6.43;;;4.20;;
64225;SDS011;50545;56.064;26.178;2023-09-18T14:59:54;8.48;;;4.43;;
64225;SDS011;50545;56.064;26.178;2023-09-18T15:02:22;7.75;;;4.78;;